createdAt,value
2019-05-06T00:02:08.284Z,12.68
2019-05-06T00:04:39.960Z,12.70
2019-05-06T00:07:13.699Z,12.60
2019-05-06T00:09:44.871Z,12.59
2019-05-06T00:12:16.414Z,12.64
2019-05-06T00:14:49.560Z,12.63
2019-05-06T00:17:21.085Z,12.60
2019-05-06T00:19:53.970Z,12.60
2019-05-06T00:22:27.629Z,12.62
2019-05-06T00:25:00.984Z,12.57
2019-05-06T00:27:34.346Z,12.60
2019-05-06T00:30:07.502Z,12.61
2019-05-06T00:32:39.289Z,12.66
2019-05-06T00:35:10.947Z,12.70
2019-05-06T00:37:44.217Z,12.68
2019-05-06T00:40:26.503Z,12.65
2019-05-06T00:42:59.754Z,12.65
2019-05-06T00:45:31.342Z,12.72
2019-05-06T00:48:04.617Z,12.72
2019-05-06T00:50:36.277Z,12.75
2019-05-06T00:53:09.435Z,12.76
2019-05-06T00:55:40.945Z,12.75
2019-05-06T00:58:14.208Z,12.77
2019-05-06T01:00:46.021Z,12.77
2019-05-06T01:03:17.886Z,12.75
2019-05-06T01:05:49.533Z,12.76
2019-05-06T01:08:21.107Z,12.77
2019-05-06T01:10:54.536Z,12.79
2019-05-06T01:13:39.526Z,12.73
2019-05-06T01:16:12.677Z,12.69
2019-05-06T01:18:44.184Z,12.67
2019-05-06T01:21:15.670Z,12.58
2019-05-06T01:23:54.275Z,12.60
2019-05-06T01:26:26.289Z,12.58
2019-05-06T01:28:57.752Z,12.59
2019-05-06T01:31:42.215Z,12.59
2019-05-06T01:34:04.344Z,12.59
2019-05-06T01:36:36.840Z,12.59
2019-05-06T01:39:13.865Z,12.57
2019-05-06T01:41:47.217Z,12.64
2019-05-06T01:44:19.171Z,12.61
2019-05-06T01:46:50.698Z,12.61
2019-05-06T01:49:24.352Z,12.59
2019-05-06T01:51:56.051Z,12.60
2019-05-06T01:54:27.668Z,12.61
2019-05-06T01:56:59.320Z,12.65
2019-05-06T01:59:30.828Z,12.61
2019-05-06T02:02:04.232Z,12.64
2019-05-06T02:04:35.625Z,12.61
2019-05-06T02:07:07.107Z,12.65
2019-05-06T02:09:38.797Z,12.76
2019-05-06T02:12:10.361Z,12.74
2019-05-06T02:14:43.711Z,12.69
2019-05-06T02:17:15.626Z,12.71
2019-05-06T02:19:47.388Z,12.70
2019-05-06T02:22:24.631Z,12.77
2019-05-06T02:24:58.012Z,12.72
2019-05-06T02:27:31.251Z,12.69
2019-05-06T02:30:05.483Z,12.70
2019-05-06T02:32:39.119Z,12.75
2019-05-06T02:35:27.829Z,12.89
2019-05-06T02:38:00.231Z,12.97
2019-05-06T02:40:33.247Z,13.04
2019-05-06T02:43:05.222Z,13.02
2019-05-06T02:45:36.923Z,13.04
2019-05-06T02:48:10.246Z,13.10
2019-05-06T02:50:46.266Z,13.17
2019-05-06T02:53:19.613Z,13.35
2019-05-06T02:55:53.100Z,13.60
2019-05-06T02:58:24.707Z,14.05
2019-05-06T03:00:56.476Z,14.13
2019-05-06T03:03:29.650Z,14.12
2019-05-06T03:06:03.792Z,14.17
2019-05-06T03:08:34.820Z,14.46
2019-05-06T03:11:06.502Z,14.84
2019-05-06T03:13:43.438Z,15.17
2019-05-06T03:16:23.550Z,15.20
2019-05-06T03:18:59.147Z,15.04
2019-05-06T03:21:37.347Z,14.83
2019-05-06T03:24:23.630Z,14.64
2019-05-06T03:26:57.331Z,14.47
2019-05-06T03:29:33.167Z,14.40
2019-05-06T03:32:06.753Z,14.37
2019-05-06T03:34:58.667Z,14.65
2019-05-06T03:37:16.258Z,15.34
2019-05-06T03:39:44.692Z,16.03
2019-05-06T03:42:16.958Z,16.31
2019-05-06T03:44:53.448Z,16.64
2019-05-06T03:47:43.322Z,16.63
2019-05-06T03:50:15.129Z,16.24
2019-05-06T03:52:56.034Z,15.74
2019-05-06T03:55:46.475Z,15.33
2019-05-06T03:58:23.589Z,15.00
2019-05-06T04:00:54.535Z,14.64
2019-05-06T04:03:42.467Z,14.50
2019-05-06T04:06:05.186Z,14.41
2019-05-06T04:08:38.607Z,14.39
2019-05-06T04:11:13.622Z,14.41
2019-05-06T04:13:48.273Z,14.39
2019-05-06T04:16:29.017Z,14.36
2019-05-06T04:19:04.161Z,14.37
2019-05-06T04:21:53.291Z,14.41
2019-05-06T04:24:39.434Z,14.42
2019-05-06T04:27:33.480Z,14.48
2019-05-06T04:30:08.257Z,14.49
2019-05-06T04:32:43.161Z,14.61
2019-05-06T04:35:16.807Z,14.68
2019-05-06T04:37:49.052Z,14.77
2019-05-06T04:40:23.887Z,14.86
2019-05-06T04:42:55.859Z,14.99
2019-05-06T04:45:27.931Z,15.00
2019-05-06T04:48:03.311Z,15.04
2019-05-06T04:50:36.883Z,15.08
2019-05-06T04:53:08.677Z,15.14
2019-05-06T04:55:43.318Z,15.20
2019-05-06T04:58:16.411Z,15.26
2019-05-06T05:00:53.357Z,15.31
2019-05-06T05:03:24.214Z,15.42
2019-05-06T05:05:56.113Z,15.52
2019-05-06T05:08:39.351Z,15.60
2019-05-06T05:11:25.217Z,15.72
2019-05-06T05:14:04.672Z,15.84
2019-05-06T05:16:42.077Z,15.99
2019-05-06T05:19:15.673Z,16.19
2019-05-06T05:21:47.352Z,16.36
2019-05-06T05:24:24.883Z,16.62
2019-05-06T05:26:56.579Z,16.90
2019-05-06T05:29:32.385Z,17.02
2019-05-06T05:32:06.266Z,17.19
2019-05-06T05:34:40.730Z,17.31
2019-05-06T05:37:14.442Z,17.39
2019-05-06T05:39:48.707Z,17.48
2019-05-06T05:42:38.054Z,17.55
2019-05-06T05:45:10.358Z,17.62
2019-05-06T05:47:44.616Z,17.65
2019-05-06T05:50:24.209Z,17.77
2019-05-06T05:52:57.478Z,17.85
2019-05-06T05:55:34.720Z,17.99
2019-05-06T05:58:06.364Z,18.12
2019-05-06T06:00:39.562Z,18.42
2019-05-06T06:03:12.634Z,18.76
2019-05-06T06:05:45.372Z,19.19
2019-05-06T06:08:17.739Z,19.51
2019-05-06T06:10:53.640Z,19.54
2019-05-06T06:13:27.090Z,19.87
2019-05-06T06:16:17.141Z,20.06
2019-05-06T06:19:07.092Z,20.27
2019-05-06T06:21:40.256Z,20.47
2019-05-06T06:24:17.939Z,20.73
2019-05-06T06:26:51.955Z,20.98
2019-05-06T06:29:25.381Z,21.18
2019-05-06T06:32:05.745Z,21.15
2019-05-06T06:34:43.217Z,21.24
2019-05-06T06:37:19.555Z,21.24
2019-05-06T06:39:52.923Z,21.37
2019-05-06T06:42:24.907Z,21.81
2019-05-06T06:44:59.318Z,22.33
2019-05-06T06:47:33.108Z,22.34
2019-05-06T06:50:06.078Z,22.30
2019-05-06T06:52:42.085Z,22.13
2019-05-06T06:55:28.163Z,22.32
2019-05-06T06:58:13.539Z,22.14
2019-05-06T07:01:07.935Z,22.51
2019-05-06T07:03:43.167Z,22.95
2019-05-06T07:06:17.088Z,23.18
2019-05-06T07:08:51.777Z,23.29
2019-05-06T07:11:24.912Z,23.48
2019-05-06T07:13:58.933Z,23.42
2019-05-06T07:16:32.976Z,23.31
2019-05-06T07:19:04.535Z,23.62
2019-05-06T07:21:38.586Z,23.60
2019-05-06T07:24:13.121Z,23.25
2019-05-06T07:26:47.359Z,23.07
2019-05-06T07:29:25.735Z,22.68
2019-05-06T07:31:53.668Z,22.62
2019-05-06T07:34:26.554Z,22.42
2019-05-06T07:37:03.517Z,22.15
2019-05-06T07:39:38.177Z,21.88
2019-05-06T07:42:15.140Z,21.83
2019-05-06T07:44:51.681Z,21.94
2019-05-06T07:47:28.127Z,22.12
2019-05-06T07:50:02.251Z,22.30
2019-05-06T07:52:33.323Z,22.53
2019-05-06T07:55:06.642Z,22.88
2019-05-06T08:23:42.833Z,24.22
2019-05-06T08:26:24.072Z,24.76
2019-05-06T08:28:57.661Z,24.89
2019-05-06T08:31:29.575Z,24.71
2019-05-06T08:34:03.555Z,24.72
2019-05-06T08:36:43.470Z,24.61
2019-05-06T08:39:16.580Z,25.16
2019-05-06T08:41:54.038Z,25.41
2019-05-06T08:44:25.573Z,25.28
2019-05-06T08:46:57.095Z,25.46
2019-05-06T08:49:33.976Z,25.81
2019-05-06T08:52:08.555Z,25.39
2019-05-06T08:54:48.038Z,24.80
2019-05-06T08:57:19.684Z,24.44
2019-05-06T08:59:53.680Z,24.80
2019-05-06T09:02:27.791Z,24.79
2019-05-06T09:05:03.068Z,25.00
2019-05-06T09:07:34.840Z,25.37
2019-05-06T09:10:06.486Z,25.49
2019-05-06T09:12:42.537Z,24.99
2019-05-06T09:15:16.153Z,24.62
2019-05-06T09:17:52.479Z,24.88
2019-05-06T09:20:23.866Z,24.73
2019-05-06T09:22:55.467Z,24.30
2019-05-06T09:25:32.320Z,23.87
2019-05-06T09:28:05.577Z,23.54
2019-05-06T09:30:39.598Z,23.94
2019-05-06T09:33:12.918Z,24.32
2019-05-06T09:35:45.705Z,24.18
2019-05-06T09:38:17.397Z,24.02
2019-05-06T09:40:52.409Z,24.03
2019-05-06T09:43:27.925Z,23.80
2019-05-06T09:46:02.153Z,24.00
2019-05-06T09:48:42.817Z,24.07
2019-05-06T09:51:22.230Z,23.84
2019-05-06T09:54:12.759Z,23.87
2019-05-06T09:56:49.245Z,24.11
2019-05-06T09:59:23.441Z,24.50
2019-05-06T10:01:56.942Z,24.75
2019-05-06T10:04:28.463Z,24.78
2019-05-06T10:07:02.820Z,24.72
2019-05-06T10:09:38.318Z,24.65
2019-05-06T10:12:09.858Z,24.49
2019-05-06T10:14:43.313Z,24.26
2019-05-06T10:17:16.139Z,24.49
2019-05-06T10:19:51.512Z,24.80
2019-05-06T10:22:26.224Z,24.87
2019-05-06T10:24:58.073Z,24.85
2019-05-06T10:27:31.335Z,24.81
2019-05-06T10:30:12.572Z,24.77
2019-05-06T10:32:49.576Z,24.58
2019-05-06T10:35:22.499Z,24.48
2019-05-06T10:38:07.037Z,24.50
2019-05-06T10:41:00.100Z,24.62
2019-05-06T10:43:32.555Z,24.73
2019-05-06T10:46:08.402Z,24.76
2019-05-06T10:48:42.257Z,24.75
2019-05-06T10:51:22.759Z,24.77
2019-05-06T10:53:59.171Z,24.42
2019-05-06T10:56:49.089Z,24.20
2019-05-06T10:59:12.846Z,24.21
2019-05-06T11:01:48.577Z,24.14
2019-05-06T11:04:22.558Z,23.90
2019-05-06T11:06:54.174Z,23.92
2019-05-06T11:09:25.763Z,23.91
2019-05-06T11:11:57.179Z,23.97
2019-05-06T11:14:29.415Z,24.04
2019-05-06T11:17:04.859Z,24.21
2019-05-06T11:19:34.552Z,24.25
2019-05-06T11:22:09.008Z,24.47
2019-05-06T11:24:43.004Z,24.83
2019-05-06T11:27:28.062Z,25.00
2019-05-06T11:29:49.263Z,24.85
2019-05-06T11:32:28.834Z,24.73
2019-05-06T11:35:03.703Z,24.94
2019-05-06T11:37:50.079Z,24.67
2019-05-06T11:40:24.709Z,24.32
2019-05-06T11:42:56.471Z,24.21
2019-05-06T11:45:28.121Z,24.30
2019-05-06T11:47:59.744Z,24.42
2019-05-06T11:50:33.302Z,24.24
2019-05-06T11:53:04.964Z,24.06
2019-05-06T11:55:38.949Z,24.16
2019-05-06T11:58:28.449Z,24.29
2019-05-06T12:01:03.082Z,24.53
2019-05-06T12:03:36.566Z,24.75
2019-05-06T12:06:09.361Z,24.82
2019-05-06T12:08:43.020Z,24.86
2019-05-06T12:11:14.219Z,24.76
2019-05-06T12:13:45.848Z,24.90
2019-05-06T12:16:18.833Z,25.12
2019-05-06T12:18:52.940Z,25.03
2019-05-06T12:21:26.393Z,25.07
2019-05-06T12:23:58.114Z,25.02
2019-05-06T12:26:32.217Z,24.63
2019-05-06T12:29:03.925Z,24.53
2019-05-06T12:31:36.715Z,24.40
2019-05-06T12:34:11.441Z,24.28
2019-05-06T12:36:44.144Z,24.27
2019-05-06T12:39:19.483Z,24.17
2019-05-06T12:42:08.328Z,24.03
2019-05-06T12:44:40.060Z,23.91
2019-05-06T12:47:22.840Z,23.94
2019-05-06T12:49:54.375Z,24.01
2019-05-06T12:52:25.932Z,23.96
2019-05-06T12:55:16.988Z,23.99
2019-05-06T12:57:35.181Z,23.99
2019-05-06T13:00:13.031Z,23.90
2019-05-06T13:02:44.073Z,23.93
2019-05-06T13:05:16.572Z,23.98
2019-05-06T13:07:48.093Z,23.89
2019-05-06T13:10:23.143Z,23.79
2019-05-06T13:12:58.646Z,23.79
2019-05-06T13:15:31.658Z,23.91
2019-05-06T13:18:07.061Z,23.89
2019-05-06T13:20:37.128Z,23.89
2019-05-06T13:23:20.662Z,23.95
2019-05-06T13:25:47.325Z,23.95
2019-05-06T13:28:22.416Z,23.92
2019-05-06T13:30:54.901Z,23.95
2019-05-06T13:33:33.859Z,23.88
2019-05-06T13:36:04.246Z,23.86
2019-05-06T13:38:35.826Z,23.74
2019-05-06T13:41:07.402Z,23.82
2019-05-06T13:43:53.846Z,23.89
2019-05-06T13:46:28.696Z,23.88
2019-05-06T13:49:02.788Z,23.85
2019-05-06T13:51:42.775Z,23.79
2019-05-06T13:54:15.974Z,23.65
2019-05-06T13:56:49.213Z,23.57
2019-05-06T13:59:20.690Z,23.51
2019-05-06T14:01:54.751Z,23.49
2019-05-06T14:04:26.517Z,23.37
2019-05-06T14:06:58.968Z,23.23
2019-05-06T14:09:38.992Z,23.19
2019-05-06T14:12:05.086Z,23.17
2019-05-06T14:14:36.589Z,23.15
2019-05-06T14:17:08.724Z,23.15
2019-05-06T14:19:42.972Z,23.01
2019-05-06T14:22:14.669Z,22.88
2019-05-06T14:24:47.760Z,22.79
2019-05-06T14:27:22.015Z,22.71
2019-05-06T14:29:55.995Z,22.61
2019-05-06T14:32:27.535Z,22.50
2019-05-06T14:46:49.971Z,21.97
2019-05-06T14:49:22.463Z,22.05
2019-05-06T14:52:09.552Z,22.00
2019-05-06T14:54:53.184Z,21.99
2019-05-06T14:57:32.270Z,22.00
2019-05-06T15:00:04.413Z,22.04
2019-05-06T15:02:38.465Z,22.07
2019-05-06T15:05:10.073Z,22.11
2019-05-06T15:07:42.162Z,22.11
2019-05-06T15:10:22.169Z,22.11
2019-05-06T15:13:02.149Z,22.08
2019-05-06T15:15:35.511Z,22.09
2019-05-06T15:18:07.677Z,22.11
2019-05-06T15:28:28.029Z,21.92
2019-05-06T15:31:03.241Z,21.87
2019-05-06T15:33:36.419Z,21.86
2019-05-06T15:55:32.157Z,21.45
2019-05-06T15:58:04.109Z,21.37
2019-05-06T16:00:36.443Z,21.33
2019-05-06T16:03:08.564Z,21.26
2019-05-06T16:09:37.294Z,21.15
2019-05-06T16:12:08.849Z,20.98
2019-05-06T16:14:42.452Z,20.92
2019-05-06T16:17:15.303Z,20.84
2019-05-06T16:19:46.771Z,20.74
2019-05-06T16:22:22.402Z,20.62
2019-05-06T16:24:55.026Z,20.52
2019-05-06T16:27:26.622Z,20.38
2019-05-06T16:29:58.196Z,20.28
2019-05-06T16:32:29.678Z,20.16
2019-05-06T16:35:02.449Z,20.05
2019-05-06T16:37:34.077Z,19.92
2019-05-06T16:40:08.316Z,19.76
2019-05-06T16:42:45.448Z,19.58
2019-05-06T16:45:14.572Z,19.48
2019-05-06T16:47:46.124Z,19.34
2019-05-06T16:50:19.300Z,19.22
2019-05-06T16:52:52.688Z,19.13
2019-05-06T16:55:29.176Z,19.05
2019-05-06T16:58:05.375Z,18.93
2019-05-06T17:00:39.243Z,18.80
2019-05-06T17:03:14.847Z,18.72
2019-05-06T17:06:04.124Z,18.63
2019-05-06T17:08:37.475Z,18.56
2019-05-06T17:11:09.092Z,18.50
2019-05-06T17:13:42.548Z,18.43
2019-05-06T17:16:18.680Z,18.35
2019-05-06T17:18:56.934Z,18.30
2019-05-06T17:21:28.914Z,18.23
2019-05-06T17:24:02.389Z,18.17
2019-05-06T17:26:34.283Z,18.12
2019-05-06T17:29:22.720Z,18.07
2019-05-06T17:31:58.372Z,18.04
2019-05-06T17:34:31.959Z,18.14
2019-05-06T17:37:08.421Z,18.24
2019-05-06T17:39:42.528Z,18.19
2019-05-06T17:42:15.871Z,18.10
2019-05-06T17:44:53.402Z,17.88
2019-05-06T17:47:34.439Z,17.74
2019-05-06T17:50:12.304Z,17.66
2019-05-06T17:52:46.220Z,17.59
2019-05-06T17:55:22.563Z,17.55
2019-05-06T17:57:54.952Z,17.47
2019-05-06T18:00:26.587Z,17.41
2019-05-06T18:02:59.237Z,17.37
2019-05-06T18:05:33.640Z,17.32
2019-05-06T18:08:08.735Z,17.26
2019-05-06T18:10:43.040Z,17.27
2019-05-06T18:13:19.453Z,17.26
2019-05-06T18:15:53.133Z,17.26
2019-05-06T18:18:31.058Z,17.26
2019-05-06T18:21:03.698Z,17.25
2019-05-06T18:23:36.169Z,17.16
2019-05-06T18:26:08.121Z,17.02
2019-05-06T18:28:43.082Z,16.96
2019-05-06T18:31:15.259Z,16.95
2019-05-06T18:33:47.100Z,16.89
2019-05-06T18:36:22.714Z,16.85
2019-05-06T18:38:54.548Z,16.86
2019-05-06T18:41:29.163Z,16.78
2019-05-06T18:44:02.207Z,16.76
2019-05-06T18:46:33.783Z,16.70
2019-05-06T18:49:05.358Z,16.68
2019-05-06T18:51:37.258Z,16.68
2019-05-06T18:54:12.351Z,16.60
2019-05-06T18:56:44.844Z,16.54
2019-05-06T18:59:16.405Z,16.51
2019-05-06T19:01:49.257Z,16.47
2019-05-06T19:04:27.226Z,16.45
2019-05-06T19:07:09.197Z,16.50
2019-05-06T19:09:45.544Z,16.51
2019-05-06T19:12:30.062Z,16.47
2019-05-06T19:14:52.704Z,16.42
2019-05-06T19:17:24.293Z,16.39
2019-05-06T19:19:55.846Z,16.29
2019-05-06T19:22:27.914Z,16.29
2019-05-06T19:24:59.588Z,16.16
2019-05-06T19:27:33.271Z,16.09
2019-05-06T19:30:06.317Z,15.98
2019-05-06T19:32:39.347Z,15.93
2019-05-06T19:35:13.077Z,15.78
2019-05-06T19:37:45.533Z,15.77
2019-05-06T19:40:18.002Z,15.87
2019-05-06T19:42:52.974Z,15.84
2019-05-06T19:45:23.072Z,15.88
2019-05-06T19:47:54.777Z,15.94
2019-05-06T19:50:28.046Z,15.92
2019-05-06T19:53:02.771Z,15.83
2019-05-06T19:55:36.283Z,15.93
2019-05-06T19:58:08.096Z,15.97
2019-05-06T20:00:42.753Z,16.03
2019-05-06T20:03:16.058Z,16.10
2019-05-06T20:05:54.440Z,16.08
2019-05-06T20:08:37.392Z,16.08
2019-05-06T20:11:13.451Z,16.06
2019-05-06T20:13:45.156Z,15.99
2019-05-06T20:16:20.215Z,15.93
2019-05-06T20:18:52.570Z,15.83
2019-05-06T20:21:26.644Z,15.75
2019-05-06T20:23:58.706Z,15.79
2019-05-06T20:26:32.387Z,15.77
2019-05-06T20:29:05.181Z,15.84
2019-05-06T20:31:36.785Z,15.82
2019-05-06T20:34:08.376Z,15.79
2019-05-06T20:36:41.852Z,15.85
2019-05-06T20:39:14.429Z,15.82
2019-05-06T20:41:46.003Z,15.88
2019-05-06T20:44:17.551Z,15.83
2019-05-06T20:46:49.100Z,15.96
2019-05-06T20:49:20.565Z,15.90
2019-05-06T20:51:52.299Z,16.07
2019-05-06T20:54:23.999Z,16.12
2019-05-06T20:56:55.465Z,16.05
2019-05-06T20:59:26.998Z,16.04
2019-05-06T21:01:58.542Z,16.03
2019-05-06T21:04:32.330Z,15.96
2019-05-06T21:07:03.208Z,15.95
2019-05-06T21:09:34.877Z,15.96
2019-05-06T21:12:09.442Z,16.06
2019-05-06T21:14:42.086Z,16.14
2019-05-06T21:17:13.950Z,16.16
2019-05-06T21:19:45.537Z,16.10
2019-05-06T21:22:17.169Z,15.99
2019-05-06T21:24:49.718Z,15.83
2019-05-06T21:27:23.021Z,15.76
2019-05-06T21:29:54.744Z,15.81
2019-05-06T21:32:26.378Z,15.92
2019-05-06T21:34:59.426Z,15.94
2019-05-06T21:37:32.357Z,15.96
2019-05-06T21:40:06.187Z,15.88
2019-05-06T21:42:38.464Z,15.69
2019-05-06T21:45:12.394Z,15.71
2019-05-06T21:47:46.417Z,15.56
2019-05-06T21:50:16.940Z,15.51
2019-05-06T21:52:48.484Z,15.52
2019-05-06T21:55:20.077Z,15.55
2019-05-06T21:57:52.957Z,15.56
2019-05-06T22:00:26.773Z,15.58
2019-05-06T22:03:02.290Z,15.60
2019-05-06T22:05:33.046Z,15.53
2019-05-06T22:08:06.618Z,15.56
2019-05-06T22:10:38.086Z,15.59
2019-05-06T22:13:09.605Z,15.58
2019-05-06T22:15:42.662Z,15.57
2019-05-06T22:18:14.229Z,15.60
2019-05-06T22:21:03.422Z,15.70
2019-05-06T22:23:55.360Z,15.70
2019-05-06T22:26:28.209Z,15.62
2019-05-06T22:29:01.897Z,15.63
2019-05-06T22:31:33.665Z,15.54
2019-05-06T22:34:06.911Z,15.52
2019-05-06T22:36:38.463Z,15.52
2019-05-06T22:39:12.058Z,15.50
2019-05-06T22:41:44.037Z,15.53
2019-05-06T22:44:17.113Z,15.58
2019-05-06T22:46:49.421Z,15.59
2019-05-06T22:49:22.580Z,15.53
2019-05-06T22:51:54.213Z,15.45
2019-05-06T22:54:26.183Z,15.40
2019-05-06T22:56:57.725Z,15.42
2019-05-06T22:59:32.845Z,15.53
2019-05-06T23:02:22.585Z,15.45
2019-05-06T23:04:59.671Z,15.45
2019-05-06T23:07:34.169Z,15.38
2019-05-06T23:10:10.933Z,15.34
2019-05-06T23:12:43.414Z,15.36
2019-05-06T23:15:20.878Z,15.34
2019-05-06T23:17:52.737Z,15.31
2019-05-06T23:20:24.616Z,15.43
2019-05-06T23:22:56.262Z,15.60
2019-05-06T23:25:29.335Z,15.61
2019-05-06T23:28:02.796Z,15.67
2019-05-06T23:30:35.248Z,15.67
2019-05-06T23:33:06.915Z,15.64
2019-05-06T23:35:38.414Z,15.59
2019-05-06T23:38:46.046Z,15.70
2019-05-06T23:41:53.858Z,15.57
2019-05-06T23:45:02.522Z,15.52
2019-05-06T23:48:12.144Z,15.42
2019-05-06T23:51:22.204Z,15.42
2019-05-06T23:54:28.872Z,15.43
2019-05-06T23:56:59.162Z,15.35
2019-05-06T23:59:32.220Z,15.27
